Pays
Station

 

Conditions  météo  pour  Pretoria Irene  -  Afrique Du Sud    Afrique Du Sud

  
21 °C
    
 
 

METAR pour Pretoria Irene :

FAIR 210857Z 09013KT 9999 FEW035 21/02 Q1031

 

Voici le bulletin pour Pretoria Irene - Afrique Du Sud.
 
Le bulletin a été fait il y a 15 heures et 21 minutes, à 08:57 UTC .
Le vent soufflait à la vitesse de 6.7 mètres par seconde de Est (090°).
 
La température était de 21 °C, avec un point de rosée à 2 °C.
La pression atmosphérique était de 1031 hPa.
L'humidité relative était de 28.4%.
 
Il y avait 1 à 2/8ème de nébulosité à une hauteur de 1067 mètres.
 
La visibilité globale était de supérieure à 10 kilomètres.
 

 
 
 

Pays :   A   B   C   D   E   F   G   H   I   J   K   L   M   N   O   P   Q   R   S   T   U   V   W   Y   Z

 

Partenaires :  Info Météo avec Met'info
Météo Marine avec MeteoMarine.net
Infos Site  |  Infos Légales  |  Crédits  |  Confidentialité
Contactez-nous  |  Ajouter aux favoris
© 2013-2018 METAR - Tous droits réservés